Latest Weather Observations for Frankston

IDV60801

Issued at 9:35 am EST Wednesday 3 September 2014 (issued every 30 minutes, with the page automatically refreshed every 10 minutes)

About weather observations | Map of weather stations | Latest weather observations for VIC | Other Formats
Station Details ID: 086371 Name: FRANKSTON AWS Lat: -38.15 Lon: 145.12 Height: 6.0 m
Data from the previous 72 hours. | See also: Recent months at Frankston
Date/Time
EST
Temp
°C
App
Temp
°C
Dew
Point
Rel
Hum
%
Delta-T
°C
Wind Press
QNH
hPa
Press
MSL
hPa
Rain
since 9 am
mm
Dir
 
Spd
km/h
Gust
km/h
Spd
kts
Gust
kts
03/09:30am 11.5 8.9 4.3 61 3.2 S 7 11 4 6 - - -
03/09:00am 11.2 8.8 4.2 62 3.1 S 6 11 3 6 - - -
03/08:30am 11.1 8.1 3.9 61 3.2 SSE 9 15 5 8 - - -
03/08:00am 10.3 8.2 4.0 65 2.8 SSE 4 6 2 3 - - -
03/07:30am 9.7 7.2 3.7 66 2.6 S 6 9 3 5 - - -
03/07:00am 9.5 8.0 3.0 64 2.8 CALM 0 0 0 0 - - -
03/06:30am 9.7 7.4 3.0 63 2.9 S 4 6 2 3 - - -
03/06:00am 9.5 7.2 2.6 62 2.9 S 4 6 2 3 - - -
03/05:30am 9.2 6.5 2.8 64 2.7 S 6 7 3 4 - - -
03/05:00am 9.3 6.5 3.1 65 2.7 SSW 7 11 4 6 - - -
03/04:30am 9.0 5.8 3.0 66 2.6 SSW 9 11 5 6 - - -
03/04:00am 9.1 6.3 2.9 65 2.6 SSW 7 9 4 5 - - -
03/03:30am 9.1 5.9 2.9 65 2.6 SSW 9 15 5 8 - - -
03/03:00am 9.1 5.1 2.7 64 2.7 SSW 13 17 7 9 - - -
03/02:30am 9.0 5.1 3.2 67 2.5 SW 13 15 7 8 - - -
03/02:00am 9.1 6.2 4.5 73 2.0 SSW 9 13 5 7 - - -
03/01:30am 9.1 6.9 5.1 76 1.8 SSW 6 7 3 4 - - -
03/01:00am 9.4 6.6 5.2 75 1.9 SW 9 11 5 6 - - -
03/12:30am 9.3 6.8 4.9 74 2.0 SSW 7 11 4 6 - - -
03/12:00am 9.3 6.5 5.3 76 1.8 SSW 9 13 5 7 - - -
 
Date/Time
EST
Temp
°C
App
Temp
°C
Dew
Point
Rel
Hum
%
Delta-T
°C
Wind Press
QNH
hPa
Press
MSL
hPa
Rain
since 9 am
mm
Dir
 
Spd
km/h
Gust
km/h
Spd
kts
Gust
kts
02/11:30pm 9.0 6.5 5.0 76 1.8 SSW 7 11 4 6 - - -
02/11:00pm 9.2 6.9 4.8 74 2.0 SSW 6 9 3 5 - - -
02/10:30pm 9.4 6.9 4.8 73 2.1 SSW 7 11 4 6 - - -
02/10:00pm 9.7 7.2 4.5 70 2.3 SSW 7 9 4 5 - - -
02/09:30pm 10.0 7.1 4.4 68 2.5 SSW 9 13 5 7 - - -
02/09:00pm 10.0 7.6 4.4 68 2.5 SSW 6 7 3 4 - - -
02/08:30pm 10.1 7.5 4.0 66 2.7 SSW 7 13 4 7 - - -
02/08:00pm 10.0 7.6 4.2 67 2.6 S 6 11 3 6 - - -
02/07:30pm 10.2 8.6 4.6 68 2.5 SSW 2 4 1 2 - - -
02/07:00pm 10.5 8.5 4.6 67 2.6 SW 4 6 2 3 - - -
02/06:30pm 10.9 8.4 4.6 65 2.8 SW 7 9 4 5 - - -
02/06:00pm 11.1 8.8 4.8 65 2.9 SSW 6 9 3 5 - - -
02/05:30pm 11.4 8.6 5.1 65 2.9 SSW 9 17 5 9 - - -
02/05:00pm 11.6 8.4 5.0 64 3.0 S 11 20 6 11 - - -
02/04:30pm 11.1 6.3 4.8 65 2.9 SSW 19 37 10 20 - - -
02/04:00pm 12.9 9.5 3.8 54 4.1 S 11 20 6 11 - - -
02/03:30pm 12.7 8.0 3.4 53 4.1 SSW 17 30 9 16 - - -
02/03:00pm 13.1 7.9 2.6 49 4.6 S 19 35 10 19 - - -
02/02:30pm 13.1 7.9 2.6 49 4.6 S 19 32 10 17 - - -
02/02:00pm 13.1 7.6 1.8 46 4.9 S 20 35 11 19 - - -
02/01:30pm 13.0 7.3 0.4 42 5.3 SSW 20 37 11 20 - - -
02/01:00pm 13.3 7.2 2.8 49 4.6 SSW 24 41 13 22 - - -
02/12:30pm 13.2 7.6 1.5 45 5.0 S 20 35 11 19 - - -
02/12:00pm 13.5 8.5 3.8 52 4.4 S 19 32 10 17 - - -
02/11:30am 13.3 8.5 4.5 55 4.0 SSW 19 30 10 16 - - -
02/11:00am 13.0 7.0 5.4 60 3.5 SW 26 39 14 21 - - -
02/10:30am 12.5 7.2 5.2 61 3.4 SW 22 33 12 18 - - -
02/10:00am 12.8 8.2 5.5 61 3.4 SSW 19 30 10 16 - - -
02/09:30am 12.2 7.6 5.4 63 3.2 SW 19 26 10 14 - - -
02/09:00am 11.8 8.9 6.7 71 2.4 SW 11 19 6 10 - - -
02/08:30am 10.8 7.9 6.7 76 1.9 SW 11 17 6 9 - - -
02/08:00am 10.3 7.9 6.8 79 1.6 SSW 9 17 5 9 - - -
02/07:30am 9.5 6.2 6.2 80 1.5 SSW 13 20 7 11 - - -
02/07:00am 9.4 6.5 6.3 81 1.4 SSW 11 26 6 14 - - -
02/06:30am 9.3 7.2 5.9 79 1.6 S 6 11 3 6 - - -
02/06:00am 9.4 7.3 6.5 82 1.3 SSW 7 17 4 9 - - -
02/05:30am 9.3 7.3 6.4 82 1.3 SSW 6 9 3 5 - - -
02/05:00am 9.4 7.5 6.5 82 1.3 SSW 6 11 3 6 - - -
02/04:30am 9.9 7.5 7.2 83 1.3 SW 9 13 5 7 - - -
02/04:00am 9.4 7.3 6.5 82 1.3 S 7 9 4 5 - - -
02/03:30am 9.6 7.1 6.7 82 1.4 SSW 9 15 5 8 - - -
02/03:00am 10.8 6.0 8.7 87 1.0 W 24 30 13 16 - - -
02/02:30am 10.8 6.6 8.4 85 1.2 W 20 22 11 12 - - -
02/02:00am 11.0 6.9 8.6 85 1.2 WSW 20 24 11 13 - - -
02/01:30am 10.8 7.5 7.9 82 1.4 WSW 15 22 8 12 - - -
02/01:00am 10.2 6.1 6.4 77 1.8 WSW 17 22 9 12 - - -
02/12:30am 11.4 7.0 8.8 84 1.3 WSW 22 28 12 15 - - -
02/12:00am 11.3 9.4 9.2 87 1.0 WSW 9 15 5 8 - - -
 
Date/Time
EST
Temp
°C
App
Temp
°C
Dew
Point
Rel
Hum
%
Delta-T
°C
Wind Press
QNH
hPa
Press
MSL
hPa
Rain
since 9 am
mm
Dir
 
Spd
km/h
Gust
km/h
Spd
kts
Gust
kts
01/11:30pm 11.6 8.2 9.2 85 1.2 W 17 19 9 10 - - -
01/11:00pm 11.5 9.7 9.6 88 1.0 WSW 9 15 5 8 - - -
01/10:30pm 11.5 8.9 9.2 86 1.2 W 13 19 7 10 - - -
01/10:00pm 11.5 8.8 9.1 85 1.2 WNW 13 17 7 9 - - -
01/09:30pm 11.4 11.0 8.3 81 1.5 CALM 0 0 0 0 - - -
01/09:00pm 11.2 10.8 8.4 83 1.4 CALM 0 0 0 0 - - -
01/08:30pm 11.3 10.2 8.3 82 1.5 SSE 4 7 2 4 - - -
01/08:00pm 11.6 9.5 8.3 80 1.6 SSW 9 13 5 7 - - -
01/07:30pm 11.6 9.9 8.5 81 1.5 SSW 7 11 4 6 - - -
01/07:00pm 11.6 10.3 9.2 85 1.2 SSW 6 9 3 5 - - -
01/06:30pm 11.5 10.0 9.1 85 1.2 SSW 7 9 4 5 - - -
01/06:00pm 11.8 9.9 9.0 83 1.4 SW 9 13 5 7 - - -
01/05:30pm 11.9 10.6 10.0 88 1.0 WSW 7 9 4 5 - - -
01/05:00pm 11.9 10.2 9.8 87 1.1 SW 9 13 5 7 - - -
01/04:30pm 11.6 10.2 9.7 88 1.0 WSW 7 11 4 6 - - -
01/04:00pm 11.6 9.4 9.3 86 1.2 W 11 15 6 8 - - -
01/03:30pm 11.4 10.3 9.8 90 0.8 SW 6 9 3 5 - - -
01/03:00pm 11.8 9.4 8.5 80 1.6 W 11 15 6 8 - - -
01/02:30pm 11.7 8.2 8.9 83 1.4 W 17 28 9 15 - - -
01/02:00pm 12.4 10.4 10.0 85 1.2 NNW 11 15 6 8 - - -
01/01:30pm 12.7 10.3 9.9 83 1.4 N 13 19 7 10 - - -
01/01:00pm 12.4 9.9 9.6 83 1.4 NNW 13 17 7 9 - - -
01/12:30pm 12.2 8.9 9.4 83 1.4 N 17 20 9 11 - - -
01/12:00pm 12.2 9.2 9.2 82 1.5 N 15 19 8 10 - - -
01/11:30am 11.9 8.8 8.9 82 1.5 NNW 15 20 8 11 - - -
01/11:00am 12.5 8.1 8.8 78 1.8 WNW 22 28 12 15 - - -
01/10:30am 13.4 10.1 8.0 70 2.7 NNW 15 19 8 10 - - -
01/10:00am 13.6 8.5 7.8 68 2.9 NW 24 30 13 16 - - -
01/09:30am 13.7 10.2 8.7 72 2.5 NNW 17 22 9 12 - - -
01/09:00am 13.9 9.2 7.7 66 3.1 NNW 22 30 12 16 - - -
01/08:30am 14.0 9.4 8.0 67 3.0 NW 22 28 12 15 - - -
01/08:00am 14.8 9.5 6.9 59 3.9 WNW 24 33 13 18 - - -
01/07:30am 15.8 10.4 6.5 54 4.5 N 24 32 13 17 - - -
01/07:00am 15.9 9.7 6.3 53 4.7 N 28 33 15 18 - - -
01/06:30am 15.2 11.4 7.7 61 3.7 N 17 22 9 12 - - -
01/06:00am 15.9 11.4 7.1 56 4.3 N 20 26 11 14 - - -
01/05:30am 16.1 11.8 7.1 55 4.5 N 19 22 10 12 - - -
01/05:00am 16.6 11.9 6.1 50 5.1 N 20 28 11 15 - - -
01/04:30am 17.4 12.6 4.4 42 6.1 NNE 19 28 10 15 - - -
01/04:00am 17.2 11.2 5.5 46 5.6 NNE 26 37 14 20 - - -
01/03:30am 17.2 11.3 5.8 47 5.5 NNE 26 37 14 20 - - -
01/03:00am 17.1 10.9 6.0 48 5.4 NNE 28 35 15 19 - - -
01/02:30am 17.4 10.2 6.0 47 5.6 NNE 33 50 18 27 - - -
01/02:00am 17.3 11.2 6.5 49 5.3 N 28 43 15 23 - - -
01/01:30am 17.2 12.6 6.7 50 5.2 N 20 33 11 18 - - -
01/01:00am 16.9 13.4 7.0 52 4.9 NNE 15 22 8 12 - - -
01/12:30am 16.9 13.0 7.3 53 4.8 NNE 17 24 9 13 - - -
01/12:00am 17.1 11.6 7.5 53 4.8 NNE 26 35 14 19 - - -
 
Date/Time
EST
Temp
°C
App
Temp
°C
Dew
Point
Rel
Hum
%
Delta-T
°C
Wind Press
QNH
hPa
Press
MSL
hPa
Rain
since 9 am
mm
Dir
 
Spd
km/h
Gust
km/h
Spd
kts
Gust
kts
31/11:30pm 17.5 11.9 7.0 50 5.2 NNE 26 39 14 21 - - -
31/11:00pm 17.3 12.1 7.4 52 5.0 NNE 24 39 13 21 - - -
31/10:30pm 17.4 13.5 6.9 50 5.2 NE 17 30 9 16 - - -
31/10:00pm 16.9 13.8 7.3 53 4.8 NE 13 24 7 13 - - -
31/09:30pm 17.0 14.2 6.8 51 5.0 NNE 11 17 6 9 - - -
31/09:00pm 17.3 14.1 6.8 50 5.2 NE 13 24 7 13 - - -
31/08:30pm 17.5 13.6 7.0 50 5.2 NE 17 26 9 14 - - -
31/08:00pm 17.5 13.3 7.3 51 5.1 NNE 19 30 10 16 - - -
31/07:30pm 17.5 14.5 7.5 52 5.0 NE 13 19 7 10 - - -
31/07:00pm 17.8 14.6 7.0 49 5.4 NE 13 24 7 13 - - -
31/06:30pm 17.9 14.4 7.3 50 5.3 NNE 15 22 8 12 - - -
31/06:00pm 17.0 13.4 8.4 57 4.4 N 17 20 9 11 - - -
31/05:30pm 17.7 14.2 8.6 55 4.7 N 17 22 9 12 - - -
31/05:00pm 17.2 13.2 8.4 56 4.5 N 19 22 10 12 - - -
31/04:30pm 17.6 13.3 7.9 53 4.9 N 20 24 11 13 - - -
31/04:00pm 17.6 12.6 8.2 54 4.8 N 24 30 13 16 - - -
31/03:30pm 18.2 12.7 7.6 50 5.4 N 26 37 14 20 - - -
31/03:00pm 16.9 12.3 8.3 57 4.4 N 22 26 12 14 - - -
31/02:30pm 16.7 12.7 8.4 58 4.2 N 19 24 10 13 - - -
31/02:00pm 16.8 12.7 8.5 58 4.2 N 20 26 11 14 - - -
31/01:30pm 17.3 12.3 7.9 54 4.8 N 24 32 13 17 - - -
31/01:00pm 17.1 12.5 8.0 55 4.6 N 22 26 12 14 - - -
31/12:30pm 16.7 11.7 7.9 56 4.4 N 24 33 13 18 - - -
31/12:00pm 16.5 11.4 7.7 56 4.4 N 24 32 13 17 - - -
31/11:30am 16.6 12.2 7.5 55 4.6 N 20 28 11 15 - - -
31/11:00am 16.7 11.4 6.8 52 4.9 N 24 32 13 17 - - -
31/10:30am 16.1 11.7 7.3 56 4.4 N 20 26 11 14 - - -
31/10:00am 15.7 11.9 7.5 58 4.1 N 17 24 9 13 - - -

Other Formats:

Comma delimited format used in spreadsheet applications
http://www.bom.gov.au/fwo/IDV60801/IDV60801.94871.axf

JavaScript Object Notation format (JSON) in row-major order
http://www.bom.gov.au/fwo/IDV60801/IDV60801.94871.json